sensor_id;sensor_type;location;lat;lon;timestamp;P1;durP1;ratioP1;P2;durP2;ratioP2
6663;SDS011;58749;48.022;10.922;2022-09-13T00:01:19;3.22;;;1.92;;
6663;SDS011;58749;48.022;10.922;2022-09-13T00:04:06;4.30;;;1.90;;
6663;SDS011;58749;48.022;10.922;2022-09-13T00:06:52;2.00;;;1.77;;
6663;SDS011;58749;48.022;10.922;2022-09-13T00:09:38;2.33;;;1.85;;
6663;SDS011;58749;48.022;10.922;2022-09-13T00:12:23;2.97;;;1.55;;
6663;SDS011;58749;48.022;10.922;2022-09-13T00:15:09;2.28;;;1.38;;
6663;SDS011;58749;48.022;10.922;2022-09-13T00:17:55;2.85;;;1.80;;
6663;SDS011;58749;48.022;10.922;2022-09-13T00:20:42;3.58;;;1.80;;
6663;SDS011;58749;48.022;10.922;2022-09-13T00:23:28;6.88;;;2.00;;
6663;SDS011;58749;48.022;10.922;2022-09-13T00:26:14;3.78;;;1.75;;
6663;SDS011;58749;48.022;10.922;2022-09-13T00:29:01;2.35;;;1.50;;
6663;SDS011;58749;48.022;10.922;2022-09-13T00:31:47;3.85;;;1.80;;
6663;SDS011;58749;48.022;10.922;2022-09-13T00:34:32;4.80;;;1.60;;
6663;SDS011;58749;48.022;10.922;2022-09-13T00:37:19;4.25;;;1.50;;
6663;SDS011;58749;48.022;10.922;2022-09-13T00:40:06;5.10;;;1.45;;
6663;SDS011;58749;48.022;10.922;2022-09-13T00:42:51;3.47;;;1.55;;
6663;SDS011;58749;48.022;10.922;2022-09-13T00:45:37;2.28;;;1.77;;
6663;SDS011;58749;48.022;10.922;2022-09-13T00:48:23;3.85;;;1.58;;
6663;SDS011;58749;48.022;10.922;2022-09-13T00:51:09;2.47;;;1.60;;
6663;SDS011;58749;48.022;10.922;2022-09-13T00:53:56;2.58;;;1.50;;
6663;SDS011;58749;48.022;10.922;2022-09-13T00:56:44;3.33;;;1.83;;
6663;SDS011;58749;48.022;10.922;2022-09-13T00:59:35;2.10;;;1.67;;
6663;SDS011;58749;48.022;10.922;2022-09-13T01:02:24;2.17;;;1.40;;
6663;SDS011;58749;48.022;10.922;2022-09-13T01:05:11;3.50;;;1.60;;
6663;SDS011;58749;48.022;10.922;2022-09-13T01:07:59;2.85;;;1.60;;
6663;SDS011;58749;48.022;10.922;2022-09-13T01:10:47;2.55;;;1.27;;
6663;SDS011;58749;48.022;10.922;2022-09-13T01:13:34;2.90;;;1.23;;
6663;SDS011;58749;48.022;10.922;2022-09-13T01:16:20;2.67;;;1.35;;
6663;SDS011;58749;48.022;10.922;2022-09-13T01:19:07;3.83;;;1.50;;
6663;SDS011;58749;48.022;10.922;2022-09-13T01:25:32;3.00;;;1.23;;
6663;SDS011;58749;48.022;10.922;2022-09-13T01:29:01;4.22;;;1.60;;
6663;SDS011;58749;48.022;10.922;2022-09-13T01:31:59;3.83;;;1.40;;
6663;SDS011;58749;48.022;10.922;2022-09-13T01:34:54;1.50;;;1.30;;
6663;SDS011;58749;48.022;10.922;2022-09-13T01:37:50;4.68;;;1.25;;
6663;SDS011;58749;48.022;10.922;2022-09-13T01:40:42;2.38;;;1.38;;
6663;SDS011;58749;48.022;10.922;2022-09-13T01:43:39;3.00;;;1.40;;
6663;SDS011;58749;48.022;10.922;2022-09-13T01:46:35;1.52;;;0.93;;
6663;SDS011;58749;48.022;10.922;2022-09-13T01:49:27;2.05;;;1.10;;
6663;SDS011;58749;48.022;10.922;2022-09-13T01:52:20;1.30;;;1.20;;
6663;SDS011;58749;48.022;10.922;2022-09-13T01:55:11;1.98;;;0.90;;
6663;SDS011;58749;48.022;10.922;2022-09-13T01:58:04;4.20;;;1.33;;
6663;SDS011;58749;48.022;10.922;2022-09-13T02:01:01;3.55;;;1.00;;
6663;SDS011;58749;48.022;10.922;2022-09-13T02:03:52;2.55;;;1.35;;
6663;SDS011;58749;48.022;10.922;2022-09-13T02:06:44;1.27;;;1.10;;
6663;SDS011;58749;48.022;10.922;2022-09-13T02:09:34;1.92;;;1.10;;
6663;SDS011;58749;48.022;10.922;2022-09-13T02:12:25;2.47;;;1.20;;
6663;SDS011;58749;48.022;10.922;2022-09-13T02:15:14;1.88;;;1.40;;
6663;SDS011;58749;48.022;10.922;2022-09-13T02:18:02;2.75;;;1.35;;
6663;SDS011;58749;48.022;10.922;2022-09-13T02:20:52;2.55;;;1.33;;
6663;SDS011;58749;48.022;10.922;2022-09-13T02:23:46;2.00;;;1.30;;
6663;SDS011;58749;48.022;10.922;2022-09-13T02:26:37;1.77;;;1.30;;
6663;SDS011;58749;48.022;10.922;2022-09-13T02:29:24;2.47;;;1.73;;
6663;SDS011;58749;48.022;10.922;2022-09-13T02:32:13;6.32;;;1.52;;
6663;SDS011;58749;48.022;10.922;2022-09-13T02:35:03;9.48;;;2.25;;
6663;SDS011;58749;48.022;10.922;2022-09-13T02:37:54;3.42;;;1.60;;
6663;SDS011;58749;48.022;10.922;2022-09-13T02:40:47;1.75;;;1.40;;
6663;SDS011;58749;48.022;10.922;2022-09-13T02:43:44;2.90;;;1.55;;
6663;SDS011;58749;48.022;10.922;2022-09-13T02:46:38;3.00;;;1.20;;
6663;SDS011;58749;48.022;10.922;2022-09-13T02:49:33;2.00;;;1.20;;
6663;SDS011;58749;48.022;10.922;2022-09-13T02:52:12;3.85;;;1.40;;
6663;SDS011;58749;48.022;10.922;2022-09-13T02:54:48;1.30;;;1.20;;
6663;SDS011;58749;48.022;10.922;2022-09-13T02:57:23;2.15;;;1.30;;
6663;SDS011;58749;48.022;10.922;2022-09-13T02:59:56;4.00;;;1.10;;
6663;SDS011;58749;48.022;10.922;2022-09-13T03:02:26;2.17;;;1.55;;
6663;SDS011;58749;48.022;10.922;2022-09-13T03:04:57;6.10;;;1.52;;
6663;SDS011;58749;48.022;10.922;2022-09-13T03:07:26;2.90;;;1.63;;
6663;SDS011;58749;48.022;10.922;2022-09-13T03:09:56;3.25;;;1.90;;
6663;SDS011;58749;48.022;10.922;2022-09-13T03:15:20;1.77;;;1.60;;
6663;SDS011;58749;48.022;10.922;2022-09-13T03:18:02;2.67;;;1.45;;
6663;SDS011;58749;48.022;10.922;2022-09-13T03:20:39;3.78;;;1.42;;
6663;SDS011;58749;48.022;10.922;2022-09-13T03:23:22;2.65;;;1.33;;
6663;SDS011;58749;48.022;10.922;2022-09-13T03:26:13;1.95;;;1.63;;
6663;SDS011;58749;48.022;10.922;2022-09-13T03:28:58;1.97;;;1.70;;
6663;SDS011;58749;48.022;10.922;2022-09-13T03:31:39;1.17;;;1.02;;
6663;SDS011;58749;48.022;10.922;2022-09-13T03:34:19;1.58;;;1.25;;
6663;SDS011;58749;48.022;10.922;2022-09-13T03:36:54;1.30;;;1.20;;
6663;SDS011;58749;48.022;10.922;2022-09-13T03:39:28;1.10;;;0.88;;
6663;SDS011;58749;48.022;10.922;2022-09-13T03:42:04;1.50;;;0.95;;
6663;SDS011;58749;48.022;10.922;2022-09-13T03:44:38;1.50;;;0.90;;
6663;SDS011;58749;48.022;10.922;2022-09-13T03:47:09;6.18;;;1.35;;
6663;SDS011;58749;48.022;10.922;2022-09-13T03:49:38;1.20;;;0.85;;
6663;SDS011;58749;48.022;10.922;2022-09-13T03:52:06;1.38;;;0.88;;
6663;SDS011;58749;48.022;10.922;2022-09-13T03:54:35;1.15;;;1.02;;
6663;SDS011;58749;48.022;10.922;2022-09-13T03:57:04;1.90;;;1.17;;
6663;SDS011;58749;48.022;10.922;2022-09-13T03:59:33;1.45;;;0.70;;
6663;SDS011;58749;48.022;10.922;2022-09-13T04:02:05;1.60;;;1.35;;
6663;SDS011;58749;48.022;10.922;2022-09-13T04:04:37;6.55;;;1.02;;
6663;SDS011;58749;48.022;10.922;2022-09-13T04:07:07;3.13;;;1.52;;
6663;SDS011;58749;48.022;10.922;2022-09-13T04:09:36;2.60;;;1.00;;
6663;SDS011;58749;48.022;10.922;2022-09-13T04:12:05;4.03;;;1.08;;
6663;SDS011;58749;48.022;10.922;2022-09-13T04:14:35;3.17;;;0.90;;
6663;SDS011;58749;48.022;10.922;2022-09-13T04:17:03;2.75;;;0.98;;
6663;SDS011;58749;48.022;10.922;2022-09-13T04:19:33;3.45;;;1.00;;
6663;SDS011;58749;48.022;10.922;2022-09-13T04:22:01;2.83;;;1.00;;
6663;SDS011;58749;48.022;10.922;2022-09-13T04:24:30;2.28;;;0.90;;
6663;SDS011;58749;48.022;10.922;2022-09-13T04:26:58;1.00;;;0.80;;
6663;SDS011;58749;48.022;10.922;2022-09-13T04:29:28;1.77;;;0.70;;
6663;SDS011;58749;48.022;10.922;2022-09-13T04:31:57;1.33;;;0.70;;
6663;SDS011;58749;48.022;10.922;2022-09-13T04:34:27;1.45;;;0.90;;
6663;SDS011;58749;48.022;10.922;2022-09-13T04:36:55;3.03;;;0.90;;
6663;SDS011;58749;48.022;10.922;2022-09-13T04:39:23;4.75;;;0.85;;
6663;SDS011;58749;48.022;10.922;2022-09-13T04:41:52;1.17;;;0.60;;
6663;SDS011;58749;48.022;10.922;2022-09-13T04:44:21;2.38;;;1.00;;
6663;SDS011;58749;48.022;10.922;2022-09-13T04:46:50;0.73;;;0.60;;
6663;SDS011;58749;48.022;10.922;2022-09-13T04:49:18;2.17;;;0.60;;
6663;SDS011;58749;48.022;10.922;2022-09-13T04:51:48;1.73;;;0.63;;
6663;SDS011;58749;48.022;10.922;2022-09-13T04:54:16;0.90;;;0.60;;
6663;SDS011;58749;48.022;10.922;2022-09-13T04:56:44;1.63;;;0.60;;
6663;SDS011;58749;48.022;10.922;2022-09-13T04:59:13;2.50;;;0.63;;
6663;SDS011;58749;48.022;10.922;2022-09-13T05:01:41;1.48;;;0.80;;
6663;SDS011;58749;48.022;10.922;2022-09-13T05:04:10;0.90;;;0.65;;
6663;SDS011;58749;48.022;10.922;2022-09-13T05:06:38;1.38;;;0.80;;
6663;SDS011;58749;48.022;10.922;2022-09-13T05:09:09;4.22;;;0.75;;
6663;SDS011;58749;48.022;10.922;2022-09-13T05:11:40;3.08;;;0.70;;
6663;SDS011;58749;48.022;10.922;2022-09-13T05:14:08;0.90;;;0.55;;
6663;SDS011;58749;48.022;10.922;2022-09-13T05:16:38;0.75;;;0.57;;
6663;SDS011;58749;48.022;10.922;2022-09-13T05:19:06;1.40;;;0.68;;
6663;SDS011;58749;48.022;10.922;2022-09-13T05:21:34;4.10;;;0.75;;
6663;SDS011;58749;48.022;10.922;2022-09-13T05:24:02;3.22;;;1.20;;
6663;SDS011;58749;48.022;10.922;2022-09-13T05:26:32;2.83;;;0.70;;
6663;SDS011;58749;48.022;10.922;2022-09-13T05:29:00;1.38;;;0.80;;
6663;SDS011;58749;48.022;10.922;2022-09-13T05:31:29;0.80;;;0.70;;
6663;SDS011;58749;48.022;10.922;2022-09-13T05:34:00;0.77;;;0.50;;
6663;SDS011;58749;48.022;10.922;2022-09-13T05:36:32;1.65;;;0.60;;
6663;SDS011;58749;48.022;10.922;2022-09-13T05:39:01;0.73;;;0.50;;
6663;SDS011;58749;48.022;10.922;2022-09-13T05:41:50;3.85;;;0.60;;
6663;SDS011;58749;48.022;10.922;2022-09-13T05:44:19;2.60;;;0.70;;
6663;SDS011;58749;48.022;10.922;2022-09-13T05:46:47;1.60;;;0.60;;
6663;SDS011;58749;48.022;10.922;2022-09-13T05:49:15;0.73;;;0.57;;
6663;SDS011;58749;48.022;10.922;2022-09-13T05:51:43;2.45;;;0.60;;
6663;SDS011;58749;48.022;10.922;2022-09-13T05:54:12;2.28;;;0.70;;
6663;SDS011;58749;48.022;10.922;2022-09-13T05:56:40;1.65;;;0.60;;
6663;SDS011;58749;48.022;10.922;2022-09-13T05:59:11;0.63;;;0.40;;
6663;SDS011;58749;48.022;10.922;2022-09-13T06:01:40;2.65;;;0.55;;
6663;SDS011;58749;48.022;10.922;2022-09-13T06:04:08;1.60;;;0.47;;
6663;SDS011;58749;48.022;10.922;2022-09-13T06:06:37;0.57;;;0.52;;
6663;SDS011;58749;48.022;10.922;2022-09-13T06:09:05;1.40;;;0.80;;
6663;SDS011;58749;48.022;10.922;2022-09-13T06:11:34;1.45;;;0.60;;
6663;SDS011;58749;48.022;10.922;2022-09-13T06:14:02;2.00;;;0.50;;
6663;SDS011;58749;48.022;10.922;2022-09-13T06:16:32;3.33;;;0.60;;
6663;SDS011;58749;48.022;10.922;2022-09-13T06:19:03;3.28;;;0.45;;
6663;SDS011;58749;48.022;10.922;2022-09-13T06:21:33;0.63;;;0.50;;
6663;SDS011;58749;48.022;10.922;2022-09-13T06:24:01;1.15;;;0.70;;
6663;SDS011;58749;48.022;10.922;2022-09-13T06:26:30;1.05;;;0.60;;
6663;SDS011;58749;48.022;10.922;2022-09-13T06:28:58;0.60;;;0.60;;
6663;SDS011;58749;48.022;10.922;2022-09-13T06:31:29;4.03;;;0.70;;
6663;SDS011;58749;48.022;10.922;2022-09-13T06:34:00;5.18;;;1.50;;
6663;SDS011;58749;48.022;10.922;2022-09-13T06:36:28;2.72;;;1.10;;
6663;SDS011;58749;48.022;10.922;2022-09-13T06:38:57;1.92;;;0.85;;
6663;SDS011;58749;48.022;10.922;2022-09-13T06:41:26;1.65;;;0.40;;
6663;SDS011;58749;48.022;10.922;2022-09-13T06:43:54;0.82;;;0.47;;
6663;SDS011;58749;48.022;10.922;2022-09-13T06:46:24;3.28;;;0.60;;
6663;SDS011;58749;48.022;10.922;2022-09-13T06:48:53;0.50;;;0.50;;
6663;SDS011;58749;48.022;10.922;2022-09-13T06:51:24;3.38;;;0.50;;
6663;SDS011;58749;48.022;10.922;2022-09-13T06:53:52;2.35;;;0.65;;
6663;SDS011;58749;48.022;10.922;2022-09-13T06:56:22;0.77;;;0.52;;
6663;SDS011;58749;48.022;10.922;2022-09-13T06:58:53;0.88;;;0.47;;
6663;SDS011;58749;48.022;10.922;2022-09-13T07:01:24;2.45;;;0.60;;
6663;SDS011;58749;48.022;10.922;2022-09-13T07:03:54;2.40;;;0.75;;
6663;SDS011;58749;48.022;10.922;2022-09-13T07:06:26;1.27;;;0.70;;
6663;SDS011;58749;48.022;10.922;2022-09-13T07:08:56;3.60;;;0.60;;
6663;SDS011;58749;48.022;10.922;2022-09-13T07:11:29;2.40;;;0.60;;
6663;SDS011;58749;48.022;10.922;2022-09-13T07:16:26;1.25;;;0.43;;
6663;SDS011;58749;48.022;10.922;2022-09-13T07:18:56;1.27;;;0.55;;
6663;SDS011;58749;48.022;10.922;2022-09-13T07:21:27;4.50;;;0.50;;
6663;SDS011;58749;48.022;10.922;2022-09-13T07:23:55;2.05;;;0.50;;
6663;SDS011;58749;48.022;10.922;2022-09-13T07:26:24;1.70;;;0.60;;
6663;SDS011;58749;48.022;10.922;2022-09-13T07:28:54;0.70;;;0.50;;
6663;SDS011;58749;48.022;10.922;2022-09-13T07:31:24;0.43;;;0.38;;
6663;SDS011;58749;48.022;10.922;2022-09-13T07:33:55;0.90;;;0.60;;
6663;SDS011;58749;48.022;10.922;2022-09-13T07:36:24;0.70;;;0.60;;
6663;SDS011;58749;48.022;10.922;2022-09-13T07:38:55;1.00;;;0.50;;
6663;SDS011;58749;48.022;10.922;2022-09-13T07:41:25;2.47;;;0.57;;
6663;SDS011;58749;48.022;10.922;2022-09-13T07:43:54;4.05;;;0.60;;
6663;SDS011;58749;48.022;10.922;2022-09-13T07:46:23;0.38;;;0.30;;
6663;SDS011;58749;48.022;10.922;2022-09-13T07:48:54;0.80;;;0.50;;
6663;SDS011;58749;48.022;10.922;2022-09-13T07:51:23;0.55;;;0.30;;
6663;SDS011;58749;48.022;10.922;2022-09-13T07:53:55;1.05;;;0.40;;
6663;SDS011;58749;48.022;10.922;2022-09-13T07:56:24;0.63;;;0.63;;
6663;SDS011;58749;48.022;10.922;2022-09-13T07:58:54;4.85;;;0.70;;
6663;SDS011;58749;48.022;10.922;2022-09-13T08:01:22;1.30;;;0.40;;
6663;SDS011;58749;48.022;10.922;2022-09-13T08:03:52;0.80;;;0.50;;
6663;SDS011;58749;48.022;10.922;2022-09-13T08:06:22;1.48;;;0.45;;
6663;SDS011;58749;48.022;10.922;2022-09-13T08:08:51;2.45;;;1.02;;
6663;SDS011;58749;48.022;10.922;2022-09-13T08:11:21;1.67;;;0.50;;
6663;SDS011;58749;48.022;10.922;2022-09-13T08:13:50;2.80;;;0.85;;
6663;SDS011;58749;48.022;10.922;2022-09-13T08:16:19;0.30;;;0.30;;
6663;SDS011;58749;48.022;10.922;2022-09-13T08:18:49;0.60;;;0.30;;
6663;SDS011;58749;48.022;10.922;2022-09-13T08:21:18;0.77;;;0.55;;
6663;SDS011;58749;48.022;10.922;2022-09-13T08:23:46;2.45;;;0.43;;
6663;SDS011;58749;48.022;10.922;2022-09-13T08:26:15;5.18;;;0.60;;
6663;SDS011;58749;48.022;10.922;2022-09-13T08:28:44;1.13;;;0.60;;
6663;SDS011;58749;48.022;10.922;2022-09-13T08:31:13;1.38;;;0.50;;
6663;SDS011;58749;48.022;10.922;2022-09-13T08:33:45;1.15;;;0.90;;
6663;SDS011;58749;48.022;10.922;2022-09-13T08:36:15;1.42;;;0.63;;
6663;SDS011;58749;48.022;10.922;2022-09-13T08:38:45;2.60;;;0.60;;
6663;SDS011;58749;48.022;10.922;2022-09-13T08:44:16;0.90;;;0.55;;
6663;SDS011;58749;48.022;10.922;2022-09-13T08:46:51;1.13;;;0.57;;
6663;SDS011;58749;48.022;10.922;2022-09-13T08:49:24;3.60;;;0.40;;
6663;SDS011;58749;48.022;10.922;2022-09-13T08:51:57;2.38;;;0.50;;
6663;SDS011;58749;48.022;10.922;2022-09-13T08:54:29;1.17;;;0.60;;
6663;SDS011;58749;48.022;10.922;2022-09-13T08:57:00;1.58;;;0.80;;
6663;SDS011;58749;48.022;10.922;2022-09-13T08:59:39;0.50;;;0.50;;
6663;SDS011;58749;48.022;10.922;2022-09-13T09:02:27;0.70;;;0.60;;
6663;SDS011;58749;48.022;10.922;2022-09-13T09:05:05;1.83;;;0.45;;
6663;SDS011;58749;48.022;10.922;2022-09-13T09:07:41;1.05;;;0.63;;
6663;SDS011;58749;48.022;10.922;2022-09-13T09:10:14;3.05;;;0.52;;
6663;SDS011;58749;48.022;10.922;2022-09-13T09:12:46;0.52;;;0.43;;
6663;SDS011;58749;48.022;10.922;2022-09-13T09:17:52;4.43;;;0.40;;
6663;SDS011;58749;48.022;10.922;2022-09-13T09:20:25;1.58;;;0.60;;
6663;SDS011;58749;48.022;10.922;2022-09-13T09:22:58;1.13;;;0.50;;
6663;SDS011;58749;48.022;10.922;2022-09-13T09:25:29;1.95;;;0.50;;
6663;SDS011;58749;48.022;10.922;2022-09-13T09:27:58;4.20;;;0.65;;
6663;SDS011;58749;48.022;10.922;2022-09-13T09:30:33;2.72;;;0.70;;
6663;SDS011;58749;48.022;10.922;2022-09-13T09:33:22;2.63;;;0.50;;
6663;SDS011;58749;48.022;10.922;2022-09-13T09:36:01;1.75;;;0.70;;
6663;SDS011;58749;48.022;10.922;2022-09-13T09:38:37;0.50;;;0.50;;
6663;SDS011;58749;48.022;10.922;2022-09-13T09:41:12;1.25;;;0.50;;
6663;SDS011;58749;48.022;10.922;2022-09-13T09:43:48;5.55;;;0.75;;
6663;SDS011;58749;48.022;10.922;2022-09-13T09:46:25;1.65;;;0.60;;
6663;SDS011;58749;48.022;10.922;2022-09-13T09:49:15;1.45;;;0.50;;
6663;SDS011;58749;48.022;10.922;2022-09-13T09:52:25;5.55;;;0.90;;
6663;SDS011;58749;48.022;10.922;2022-09-13T09:55:19;1.60;;;0.60;;
6663;SDS011;58749;48.022;10.922;2022-09-13T09:57:54;2.92;;;0.55;;
6663;SDS011;58749;48.022;10.922;2022-09-13T10:00:24;6.80;;;0.70;;
6663;SDS011;58749;48.022;10.922;2022-09-13T10:02:56;3.65;;;0.80;;
6663;SDS011;58749;48.022;10.922;2022-09-13T10:05:26;2.40;;;0.80;;
6663;SDS011;58749;48.022;10.922;2022-09-13T10:07:56;2.65;;;0.60;;
6663;SDS011;58749;48.022;10.922;2022-09-13T10:10:28;2.92;;;0.93;;
6663;SDS011;58749;48.022;10.922;2022-09-13T10:13:03;1.77;;;0.50;;
6663;SDS011;58749;48.022;10.922;2022-09-13T10:15:33;2.90;;;1.17;;
6663;SDS011;58749;48.022;10.922;2022-09-13T10:18:11;2.97;;;0.65;;
6663;SDS011;58749;48.022;10.922;2022-09-13T10:21:03;0.90;;;0.60;;
6663;SDS011;58749;48.022;10.922;2022-09-13T10:23:33;1.55;;;0.68;;
6663;SDS011;58749;48.022;10.922;2022-09-13T10:26:03;1.08;;;0.50;;
6663;SDS011;58749;48.022;10.922;2022-09-13T10:28:34;2.60;;;0.60;;
6663;SDS011;58749;48.022;10.922;2022-09-13T10:31:09;1.38;;;0.60;;
6663;SDS011;58749;48.022;10.922;2022-09-13T10:33:45;1.48;;;0.60;;
6663;SDS011;58749;48.022;10.922;2022-09-13T10:36:24;1.73;;;0.40;;
6663;SDS011;58749;48.022;10.922;2022-09-13T10:39:16;4.88;;;0.57;;
6663;SDS011;58749;48.022;10.922;2022-09-13T10:41:48;1.17;;;0.60;;
6663;SDS011;58749;48.022;10.922;2022-09-13T10:44:24;0.90;;;0.63;;
6663;SDS011;58749;48.022;10.922;2022-09-13T10:46:55;2.58;;;0.70;;
6663;SDS011;58749;48.022;10.922;2022-09-13T10:49:37;1.75;;;0.50;;
6663;SDS011;58749;48.022;10.922;2022-09-13T10:52:22;0.57;;;0.57;;
6663;SDS011;58749;48.022;10.922;2022-09-13T10:55:23;1.17;;;0.55;;
6663;SDS011;58749;48.022;10.922;2022-09-13T10:58:13;1.40;;;0.75;;
6663;SDS011;58749;48.022;10.922;2022-09-13T11:00:49;1.80;;;0.70;;
6663;SDS011;58749;48.022;10.922;2022-09-13T11:03:34;0.70;;;0.60;;
6663;SDS011;58749;48.022;10.922;2022-09-13T11:06:16;0.98;;;0.50;;
6663;SDS011;58749;48.022;10.922;2022-09-13T11:08:51;0.75;;;0.45;;
6663;SDS011;58749;48.022;10.922;2022-09-13T11:11:26;2.28;;;0.60;;
6663;SDS011;58749;48.022;10.922;2022-09-13T11:14:16;0.50;;;0.38;;
6663;SDS011;58749;48.022;10.922;2022-09-13T11:16:54;0.63;;;0.40;;
6663;SDS011;58749;48.022;10.922;2022-09-13T11:19:35;1.48;;;0.30;;
6663;SDS011;58749;48.022;10.922;2022-09-13T11:22:35;1.07;;;0.57;;
6663;SDS011;58749;48.022;10.922;2022-09-13T11:25:26;0.60;;;0.32;;
6663;SDS011;58749;48.022;10.922;2022-09-13T11:27:59;1.05;;;0.40;;
6663;SDS011;58749;48.022;10.922;2022-09-13T11:30:34;2.33;;;0.55;;
6663;SDS011;58749;48.022;10.922;2022-09-13T11:33:19;2.17;;;0.75;;
6663;SDS011;58749;48.022;10.922;2022-09-13T11:39:00;2.63;;;0.50;;
6663;SDS011;58749;48.022;10.922;2022-09-13T11:41:40;2.30;;;0.50;;
6663;SDS011;58749;48.022;10.922;2022-09-13T11:44:25;0.82;;;0.60;;
6663;SDS011;58749;48.022;10.922;2022-09-13T11:47:07;1.90;;;0.70;;
6663;SDS011;58749;48.022;10.922;2022-09-13T11:49:56;0.93;;;0.35;;
6663;SDS011;58749;48.022;10.922;2022-09-13T11:52:43;2.80;;;0.35;;
6663;SDS011;58749;48.022;10.922;2022-09-13T11:55:22;0.93;;;0.50;;
6663;SDS011;58749;48.022;10.922;2022-09-13T11:57:54;2.22;;;0.50;;
6663;SDS011;58749;48.022;10.922;2022-09-13T12:00:26;1.15;;;0.45;;
6663;SDS011;58749;48.022;10.922;2022-09-13T12:02:58;3.67;;;1.02;;
6663;SDS011;58749;48.022;10.922;2022-09-13T12:05:34;0.80;;;0.40;;
6663;SDS011;58749;48.022;10.922;2022-09-13T12:08:09;2.78;;;0.40;;
6663;SDS011;58749;48.022;10.922;2022-09-13T12:10:44;0.45;;;0.28;;
6663;SDS011;58749;48.022;10.922;2022-09-13T12:13:17;0.75;;;0.40;;
6663;SDS011;58749;48.022;10.922;2022-09-13T12:15:50;0.30;;;0.27;;
6663;SDS011;58749;48.022;10.922;2022-09-13T12:18:20;0.77;;;0.40;;
6663;SDS011;58749;48.022;10.922;2022-09-13T12:20:53;0.50;;;0.30;;
6663;SDS011;58749;48.022;10.922;2022-09-13T12:23:25;0.88;;;0.30;;
6663;SDS011;58749;48.022;10.922;2022-09-13T12:25:59;0.68;;;0.43;;
6663;SDS011;58749;48.022;10.922;2022-09-13T12:28:33;1.67;;;0.68;;
6663;SDS011;58749;48.022;10.922;2022-09-13T12:31:08;3.45;;;0.60;;
6663;SDS011;58749;48.022;10.922;2022-09-13T12:33:42;0.90;;;0.28;;
6663;SDS011;58749;48.022;10.922;2022-09-13T12:36:19;1.15;;;0.22;;
6663;SDS011;58749;48.022;10.922;2022-09-13T12:42:27;3.80;;;0.85;;
6663;SDS011;58749;48.022;10.922;2022-09-13T12:45:40;3.50;;;0.35;;
6663;SDS011;58749;48.022;10.922;2022-09-13T12:48:41;3.97;;;0.45;;
6663;SDS011;58749;48.022;10.922;2022-09-13T12:51:29;1.83;;;0.68;;
6663;SDS011;58749;48.022;10.922;2022-09-13T12:56:47;2.17;;;0.50;;
6663;SDS011;58749;48.022;10.922;2022-09-13T12:59:34;0.50;;;0.40;;
6663;SDS011;58749;48.022;10.922;2022-09-13T13:02:23;1.50;;;0.35;;
6663;SDS011;58749;48.022;10.922;2022-09-13T13:04:55;0.57;;;0.35;;
6663;SDS011;58749;48.022;10.922;2022-09-13T13:07:26;0.80;;;0.50;;
6663;SDS011;58749;48.022;10.922;2022-09-13T13:09:56;0.55;;;0.30;;
6663;SDS011;58749;48.022;10.922;2022-09-13T13:12:25;1.05;;;0.60;;
6663;SDS011;58749;48.022;10.922;2022-09-13T13:14:58;1.00;;;0.30;;
6663;SDS011;58749;48.022;10.922;2022-09-13T13:17:43;0.60;;;0.30;;
6663;SDS011;58749;48.022;10.922;2022-09-13T13:23:14;1.02;;;0.40;;
6663;SDS011;58749;48.022;10.922;2022-09-13T13:26:05;0.95;;;0.40;;
6663;SDS011;58749;48.022;10.922;2022-09-13T13:28:51;3.42;;;0.60;;
6663;SDS011;58749;48.022;10.922;2022-09-13T13:31:43;0.77;;;0.30;;
6663;SDS011;58749;48.022;10.922;2022-09-13T13:40:09;2.22;;;0.70;;
6663;SDS011;58749;48.022;10.922;2022-09-13T13:42:48;1.40;;;1.08;;
6663;SDS011;58749;48.022;10.922;2022-09-13T13:45:21;0.95;;;0.50;;
6663;SDS011;58749;48.022;10.922;2022-09-13T13:47:55;0.75;;;0.32;;
6663;SDS011;58749;48.022;10.922;2022-09-13T13:53:44;1.35;;;0.70;;
6663;SDS011;58749;48.022;10.922;2022-09-13T13:56:23;1.05;;;0.70;;
6663;SDS011;58749;48.022;10.922;2022-09-13T13:58:55;1.98;;;0.60;;
6663;SDS011;58749;48.022;10.922;2022-09-13T14:01:31;2.97;;;0.40;;
6663;SDS011;58749;48.022;10.922;2022-09-13T14:07:33;0.80;;;0.60;;
6663;SDS011;58749;48.022;10.922;2022-09-13T14:10:25;0.65;;;0.30;;
6663;SDS011;58749;48.022;10.922;2022-09-13T14:13:06;0.90;;;0.40;;
6663;SDS011;58749;48.022;10.922;2022-09-13T14:15:47;1.27;;;0.40;;
6663;SDS011;58749;48.022;10.922;2022-09-13T14:21:22;3.17;;;0.35;;
6663;SDS011;58749;48.022;10.922;2022-09-13T14:24:07;5.38;;;0.70;;
6663;SDS011;58749;48.022;10.922;2022-09-13T14:26:41;2.75;;;0.57;;
6663;SDS011;58749;48.022;10.922;2022-09-13T14:29:11;2.58;;;0.52;;
6663;SDS011;58749;48.022;10.922;2022-09-13T14:31:44;1.35;;;0.40;;
6663;SDS011;58749;48.022;10.922;2022-09-13T14:34:20;0.95;;;0.40;;
6663;SDS011;58749;48.022;10.922;2022-09-13T14:36:50;1.25;;;0.50;;
6663;SDS011;58749;48.022;10.922;2022-09-13T14:39:21;1.58;;;0.82;;
6663;SDS011;58749;48.022;10.922;2022-09-13T14:41:56;1.85;;;0.60;;
6663;SDS011;58749;48.022;10.922;2022-09-13T14:44:26;2.33;;;0.45;;
6663;SDS011;58749;48.022;10.922;2022-09-13T14:47:00;2.20;;;0.50;;
6663;SDS011;58749;48.022;10.922;2022-09-13T14:49:34;1.55;;;0.57;;
6663;SDS011;58749;48.022;10.922;2022-09-13T14:52:06;0.30;;;0.30;;
6663;SDS011;58749;48.022;10.922;2022-09-13T14:54:42;3.78;;;0.90;;
6663;SDS011;58749;48.022;10.922;2022-09-13T14:57:16;2.05;;;0.38;;
6663;SDS011;58749;48.022;10.922;2022-09-13T14:59:58;0.65;;;0.40;;
6663;SDS011;58749;48.022;10.922;2022-09-13T15:02:28;0.50;;;0.38;;
6663;SDS011;58749;48.022;10.922;2022-09-13T15:05:03;0.55;;;0.40;;
6663;SDS011;58749;48.022;10.922;2022-09-13T15:07:34;1.02;;;0.30;;
6663;SDS011;58749;48.022;10.922;2022-09-13T15:10:07;3.00;;;0.50;;
6663;SDS011;58749;48.022;10.922;2022-09-13T15:12:49;2.95;;;0.73;;
6663;SDS011;58749;48.022;10.922;2022-09-13T15:15:24;1.25;;;0.60;;
6663;SDS011;58749;48.022;10.922;2022-09-13T15:17:58;1.13;;;0.47;;
6663;SDS011;58749;48.022;10.922;2022-09-13T15:20:28;3.22;;;0.35;;
6663;SDS011;58749;48.022;10.922;2022-09-13T15:23:12;0.65;;;0.40;;
6663;SDS011;58749;48.022;10.922;2022-09-13T15:25:47;3.20;;;0.30;;
6663;SDS011;58749;48.022;10.922;2022-09-13T15:28:23;0.50;;;0.40;;
6663;SDS011;58749;48.022;10.922;2022-09-13T15:30:52;0.50;;;0.50;;
6663;SDS011;58749;48.022;10.922;2022-09-13T15:33:23;1.35;;;0.70;;
6663;SDS011;58749;48.022;10.922;2022-09-13T15:38:58;1.10;;;0.47;;
6663;SDS011;58749;48.022;10.922;2022-09-13T15:41:29;3.70;;;0.73;;
6663;SDS011;58749;48.022;10.922;2022-09-13T15:43:59;1.00;;;0.40;;
6663;SDS011;58749;48.022;10.922;2022-09-13T15:46:28;1.58;;;0.30;;
6663;SDS011;58749;48.022;10.922;2022-09-13T15:48:57;2.90;;;0.60;;
6663;SDS011;58749;48.022;10.922;2022-09-13T15:51:27;0.95;;;0.60;;
6663;SDS011;58749;48.022;10.922;2022-09-13T15:54:04;1.13;;;0.50;;
6663;SDS011;58749;48.022;10.922;2022-09-13T15:56:40;3.97;;;0.57;;
6663;SDS011;58749;48.022;10.922;2022-09-13T15:59:10;1.92;;;0.50;;
6663;SDS011;58749;48.022;10.922;2022-09-13T16:01:39;0.70;;;0.50;;
6663;SDS011;58749;48.022;10.922;2022-09-13T16:04:08;3.75;;;0.47;;
6663;SDS011;58749;48.022;10.922;2022-09-13T16:06:36;1.17;;;0.60;;
6663;SDS011;58749;48.022;10.922;2022-09-13T16:09:06;3.13;;;0.40;;
6663;SDS011;58749;48.022;10.922;2022-09-13T16:11:43;2.08;;;0.60;;
6663;SDS011;58749;48.022;10.922;2022-09-13T16:14:11;3.05;;;0.52;;
6663;SDS011;58749;48.022;10.922;2022-09-13T16:16:40;1.45;;;0.40;;
6663;SDS011;58749;48.022;10.922;2022-09-13T16:19:08;6.07;;;0.70;;
6663;SDS011;58749;48.022;10.922;2022-09-13T16:21:41;0.88;;;0.43;;
6663;SDS011;58749;48.022;10.922;2022-09-13T16:24:09;1.45;;;0.40;;
6663;SDS011;58749;48.022;10.922;2022-09-13T16:26:37;3.08;;;0.40;;
6663;SDS011;58749;48.022;10.922;2022-09-13T16:29:08;3.25;;;0.40;;